Seago Piraeus — OXVD2 — position and weather

sailwx.info

Track history (hours):
 
Tides and Currents Weather Stations Pressure Air Temp Water Temp Dewpoint Dewpoint Depression Visibility Wind Speed Wind Dir Waves Ship Positions

Seago Piraeus

Last reported at 2014-Nov-23 12:00 UTC. Time now 2014-Nov-23 21:13 UTC.
Position N 37°12' W 009°36'.

Length 294 m; draft 13.7 m.

Type: Ship (hazmat cat A). MMSI: 219117000.

Wind from 360 at 22 knots

Barometer 1010.9 mb
Air temperature 19.0 ° C
Visibility: greater than 5.4 NM
Dewpoint 14.7 ° C
Water temperature 19.0 ° C

Date/timePositionNaut miles runAvg speedWind from/ knotsBaromVisibWave heightAir tempDewpointWater temp
2014-Nov-23 12:00N 37°12' W 009°36'3712.4 360 / 221010.9 5.4 19.014.719.0
2014-Nov-23 09:00N 37°48' W 009°48'1022.3 010 / 251010.510.8 17.013.519.0
2014-Nov-23 08:32N 37°57' W 009°53'2710.7
2014-Nov-23 06:00N 38°24' W 010°00'33013.8 010 / 331010.010.8 19.514.418.0
2014-Nov-22 06:00N 43°54' W 009°36'8213.6 320 / 121011.810.8 15.512.415.0
2014-Nov-22 00:00N 45°06' W 008°42'4213.9 240 / 91011.010.8 17.013.515.0
2014-Nov-21 21:00N 45°42' W 008°12'32012.9 190 / 161009.5 5.4 17.013.514.0
2014-Nov-20 20:14N 49°53' W 003°17'912.7
2014-Nov-20 19:31N 49°58' W 003°05'1211.9
2014-Nov-20 18:32N 50°01' W 002°48'5412.3
2014-Nov-20 14:11N 50°17' W 001°27'1515.5
2014-Nov-20 13:14N 50°21' W 001°05'1116.0
2014-Nov-20 12:33N 50°24' W 000°49'3114.8
2014-Nov-20 10:29N 50°32' W 000°02'1213.2
2014-Nov-20 09:33N 50°35' E 000°16'1212.4
2014-Nov-20 08:33N 50°38' E 000°35'1212.1
2014-Nov-20 07:33N 50°45' E 000°51'1312.7
2014-Nov-20 06:33N 50°53' E 001°07'1514.7
2014-Nov-20 05:34N 51°02' E 001°25'1515.1
2014-Nov-20 04:34N 51°12' E 001°43'1414.0
2014-Nov-20 03:33N 51°23' E 001°57'1211.8
2014-Nov-20 02:33N 51°21' E 002°16'1612.5
2014-Nov-20 01:16N 51°23' E 002°42'811.2
2014-Nov-20 00:32N 51°25' E 002°54'1212.6
2014-Nov-19 23:33N 51°25' E 003°14'1212.0
2014-Nov-19 22:33N 51°26' E 003°33'7 7.3
2014-Nov-19 21:33N 51°23' E 003°44'9 8.9
2014-Nov-19 20:33N 51°25' E 003°58'7 7.2
2014-Nov-19 19:33N 51°22' E 004°09'7 6.5
2014-Nov-19 18:34N 51°18' E 004°16'0 0.1
2014-Nov-19 17:30N 51°18' E 004°16'0 0.0
2014-Nov-19 16:31N 51°18' E 004°16'0 0.0
2014-Nov-19 15:31N 51°18' E 004°16'0 0.0
2014-Nov-19 14:31N 51°18' E 004°16'0 0.0
2014-Nov-19 13:31N 51°18' E 004°16'0 0.0
2014-Nov-19 12:31N 51°18' E 004°16'0 0.0
2014-Nov-19 11:31N 51°18' E 004°16'0 0.0
2014-Nov-19 10:31N 51°18' E 004°16'0 0.0
2014-Nov-19 09:31N 51°18' E 004°16'0 0.0
2014-Nov-19 08:28N 51°18' E 004°16'0 0.0
2014-Nov-19 07:28N 51°18' E 004°16'0 0.0
2014-Nov-19 06:25N 51°18' E 004°16'0 0.0
2014-Nov-19 05:31N 51°18' E 004°16'0 0.0
2014-Nov-19 04:31N 51°18' E 004°16'0 0.0
2014-Nov-19 03:31N 51°18' E 004°16'0 0.0
2014-Nov-19 02:31N 51°18' E 004°16'0 0.0
2014-Nov-19 01:31N 51°18' E 004°16'0 0.0
2014-Nov-19 00:28N 51°18' E 004°16'0 0.0
2014-Nov-18 23:31N 51°18' E 004°16'0 0.0
2014-Nov-18 22:31N 51°18' E 004°16'0 0.0
2014-Nov-18 21:31N 51°18' E 004°16'0 0.0
2014-Nov-18 20:31N 51°18' E 004°16'0 0.0
2014-Nov-18 19:31N 51°18' E 004°16'0 0.0
2014-Nov-18 18:31N 51°18' E 004°16'0 0.0
2014-Nov-18 17:31N 51°18' E 004°16'0 0.0
2014-Nov-18 16:31N 51°18' E 004°16'0 0.0
2014-Nov-18 15:28N 51°18' E 004°16'0 0.1
2014-Nov-18 14:34N 51°18' E 004°16'3 3.3
2014-Nov-18 13:33N 51°21' E 004°15'8 8.0
2014-Nov-18 12:34N 51°23' E 004°02'6 5.9
2014-Nov-18 11:33N 51°21' E 003°53'1010.5
2014-Nov-18 10:33N 51°26' E 003°39'1312.8
2014-Nov-18 09:34N 51°24' E 003°18'1111.1
2014-Nov-18 08:33N 51°28' E 003°01'1413.8
2014-Nov-18 07:32N 51°40' E 003°11'7 7.0
2014-Nov-18 06:33N 51°45' E 003°18'0 0.1
2014-Nov-18 05:25N 51°45' E 003°18'0 0.0
2014-Nov-18 04:13N 51°45' E 003°18'0 0.0
2014-Nov-18 03:31N 51°45' E 003°18'0 0.0
2014-Nov-18 02:31N 51°45' E 003°18'0 0.1
2014-Nov-18 01:25N 51°45' E 003°18'0 0.1
2014-Nov-18 00:22N 51°45' E 003°18'0 0.0
2014-Nov-17 23:31N 51°45' E 003°18'0 0.0
2014-Nov-17 22:28N 51°45' E 003°18'0 0.0
2014-Nov-17 21:25N 51°45' E 003°18'0 0.1
2014-Nov-17 20:16N 51°45' E 003°18'0 0.1
2014-Nov-17 19:31N 51°45' E 003°18'0 0.1
2014-Nov-17 18:31N 51°45' E 003°18'0 0.0
2014-Nov-17 17:31N 51°45' E 003°18'5 5.5
2014-Nov-17 16:33N 51°51' E 003°17'9012.1
2014-Nov-17 09:09N 53°11' E 004°23'2113.2
2014-Nov-17 07:32N 53°29' E 004°42'1414.1
2014-Nov-17 06:34N 53°34' E 005°04'1413.7
2014-Nov-17 05:33N 53°38' E 005°25'1313.0
2014-Nov-17 04:33N 53°42' E 005°46'1312.5
2014-Nov-17 03:33N 53°46' E 006°06'5212.9
2014-Nov-16 23:33N 53°59' E 007°31'1211.6
2014-Nov-16 22:33N 53°53' E 007°47'1313.2
2014-Nov-16 21:33N 53°48' E 008°08'1615.6
2014-Nov-16 20:33N 53°38' E 008°28'2 2.2
2014-Nov-16 19:32N 53°36' E 008°31'0 0.0
2014-Nov-16 18:32N 53°36' E 008°31'0 0.0
2014-Nov-16 17:32N 53°36' E 008°31'0 0.0
2014-Nov-16 16:32N 53°36' E 008°31'0 0.0
2014-Nov-16 15:32N 53°36' E 008°31'0 0.0
2014-Nov-16 14:32N 53°36' E 008°31'0 0.0
2014-Nov-16 13:32N 53°36' E 008°31'0 0.0
2014-Nov-16 12:32N 53°36' E 008°31'0 0.0
2014-Nov-16 11:32N 53°36' E 008°31'0 0.0
2014-Nov-16 10:32N 53°36' E 008°31'0 0.0
2014-Nov-16 09:32N 53°36' E 008°31'0 0.0
2014-Nov-16 08:32N 53°36' E 008°31'0 0.0
2014-Nov-16 07:29N 53°36' E 008°31'0 0.0
2014-Nov-16 06:32N 53°36' E 008°31'0 0.0
2014-Nov-16 05:32N 53°36' E 008°31'0 0.0
2014-Nov-16 04:32N 53°36' E 008°31'0 0.0
2014-Nov-16 03:34N 53°36' E 008°31'0 0.0
2014-Nov-16 02:33N 53°36' E 008°31'0 0.0
2014-Nov-16 01:33N 53°36' E 008°31'0 0.0
2014-Nov-16 00:34N 53°36' E 008°31'3 2.7
2014-Nov-15 23:33N 53°38' E 008°27'1515.2
2014-Nov-15 22:34N 53°48' E 008°08'1413.5
2014-Nov-15 21:33N 53°54' E 007°47'1 0.7
2014-Nov-15 20:30N 53°54' E 007°47'0 0.0
2014-Nov-15 19:33N 53°54' E 007°47'0 0.0
2014-Nov-15 18:33N 53°54' E 007°47'0 0.0
2014-Nov-15 17:30N 53°54' E 007°47'0 0.0
2014-Nov-15 16:30N 53°54' E 007°47'0 0.1
2014-Nov-15 15:33N 53°54' E 007°47'0 0.0
2014-Nov-15 14:33N 53°54' E 007°47'0 0.0
2014-Nov-15 13:30N 53°54' E 007°47'0 0.0
2014-Nov-15 12:33N 53°54' E 007°47'0 0.0
2014-Nov-15 11:33N 53°54' E 007°47'0 0.0
2014-Nov-15 10:33N 53°54' E 007°47'0 0.0
2014-Nov-15 09:33N 53°54' E 007°47'0 0.0
2014-Nov-15 08:30N 53°54' E 007°47'0 0.0
2014-Nov-15 07:33N 53°54' E 007°47'0 0.0
2014-Nov-15 06:33N 53°54' E 007°47'0 0.0
2014-Nov-15 05:30N 53°54' E 007°47'0 0.0
2014-Nov-15 04:33N 53°54' E 007°47'0 0.0
2014-Nov-15 03:33N 53°54' E 007°47'0 0.0
2014-Nov-15 02:27N 53°54' E 007°47'0 0.0
2014-Nov-15 01:33N 53°54' E 007°47'0 0.0
2014-Nov-15 00:27N 53°54' E 007°47'0 0.0
2014-Nov-14 23:33N 53°54' E 007°47'0 0.0
2014-Nov-14 22:33N 53°54' E 007°47'0 0.0
2014-Nov-14 21:33N 53°54' E 007°47'0 0.0
2014-Nov-14 20:30N 53°54' E 007°47'0 0.0
2014-Nov-14 19:27N 53°54' E 007°47'0 0.0
2014-Nov-14 18:33N 53°54' E 007°47'0 0.0
2014-Nov-14 17:33N 53°54' E 007°47'0 0.0
2014-Nov-14 16:33N 53°54' E 007°47'0 0.0
2014-Nov-14 15:27N 53°54' E 007°47'0 0.0
2014-Nov-14 14:27N 53°54' E 007°47'27 9.0
2014-Nov-14 11:30N 53°51' E 007°02'1212.9
2014-Nov-14 10:33N 53°48' E 006°42'1312.3
2014-Nov-14 09:29N 53°45' E 006°20'1111.9
2014-Nov-14 08:33N 53°41' E 006°02'1211.7
2014-Nov-14 07:33N 53°38' E 005°43'814.4
2014-Nov-14 07:00N 53°36' E 005°30'4 8.3 130 / 211009.0 0.5 9.8 9.213.0
2014-Nov-14 06:33N 53°34' E 005°25'1111.5
2014-Nov-14 05:33N 53°31' E 005°06'1211.6
2014-Nov-14 04:33N 53°26' E 004°48'1211.8
2014-Nov-14 03:33N 53°17' E 004°36'1120.5
2014-Nov-14 03:00N 53°06' E 004°30'3 6.0 130 / 61008.6 5.4 10.010.014.0
2014-Nov-14 02:33N 53°06' E 004°26'1212.5
2014-Nov-14 01:33N 52°55' E 004°17'1212.2
2014-Nov-14 00:33N 52°45' E 004°06'1211.8
2014-Nov-13 23:33N 52°39' E 003°48'1312.5
2014-Nov-13 22:33N 52°31' E 003°34'1312.6
2014-Nov-13 21:33N 52°24' E 003°16'5413.4
2014-Nov-13 17:33N 51°52' E 002°06'1312.6
2014-Nov-13 16:33N 51°48' E 001°46'9 9.3
2014-Nov-13 15:33N 51°53' E 001°33'9 9.1
2014-Nov-13 14:33N 51°55' E 001°19'3 2.6
2014-Nov-13 13:31N 51°58' E 001°17'0 0.0
2014-Nov-13 12:31N 51°58' E 001°17'  
Track history (hours):
 
Tides and Currents Weather Stations Pressure Air Temp Water Temp Dewpoint Dewpoint Depression Visibility Wind Speed Wind Dir Waves Ship Positions

Seago Piraeus

Last reported at 2014-Nov-23 12:00 UTC. Time now 2014-Nov-23 21:13 UTC.
Position N 37°12' W 009°36'.

Length 294 m; draft 13.7 m.

Type: Ship (hazmat cat A). MMSI: 219117000.

Wind from 360 at 22 knots

Barometer 1010.9 mb
Air temperature 19.0 ° C
Visibility: greater than 5.4 NM
Dewpoint 14.7 ° C
Water temperature 19.0 ° C

Date/timePositionNaut miles runAvg speedWind from/ knotsBaromVisibWave heightAir tempDewpointWater temp
2014-Nov-23 12:00N 37°12' W 009°36'3712.4 360 / 221010.9 5.4 19.014.719.0
2014-Nov-23 09:00N 37°48' W 009°48'1022.3 010 / 251010.510.8 17.013.519.0
2014-Nov-23 08:32N 37°57' W 009°53'2710.7
2014-Nov-23 06:00N 38°24' W 010°00'33013.8 010 / 331010.010.8 19.514.418.0
2014-Nov-22 06:00N 43°54' W 009°36'8213.6 320 / 121011.810.8 15.512.415.0
2014-Nov-22 00:00N 45°06' W 008°42'4213.9 240 / 91011.010.8 17.013.515.0
2014-Nov-21 21:00N 45°42' W 008°12'32012.9 190 / 161009.5 5.4 17.013.514.0
2014-Nov-20 20:14N 49°53' W 003°17'912.7
2014-Nov-20 19:31N 49°58' W 003°05'1211.9
2014-Nov-20 18:32N 50°01' W 002°48'5412.3
2014-Nov-20 14:11N 50°17' W 001°27'1515.5
2014-Nov-20 13:14N 50°21' W 001°05'1116.0
2014-Nov-20 12:33N 50°24' W 000°49'3114.8
2014-Nov-20 10:29N 50°32' W 000°02'1213.2
2014-Nov-20 09:33N 50°35' E 000°16'1212.4
2014-Nov-20 08:33N 50°38' E 000°35'1212.1
2014-Nov-20 07:33N 50°45' E 000°51'1312.7
2014-Nov-20 06:33N 50°53' E 001°07'1514.7
2014-Nov-20 05:34N 51°02' E 001°25'1515.1
2014-Nov-20 04:34N 51°12' E 001°43'1414.0
2014-Nov-20 03:33N 51°23' E 001°57'1211.8
2014-Nov-20 02:33N 51°21' E 002°16'1612.5
2014-Nov-20 01:16N 51°23' E 002°42'811.2
2014-Nov-20 00:32N 51°25' E 002°54'1212.6
2014-Nov-19 23:33N 51°25' E 003°14'1212.0
2014-Nov-19 22:33N 51°26' E 003°33'7 7.3
2014-Nov-19 21:33N 51°23' E 003°44'9 8.9
2014-Nov-19 20:33N 51°25' E 003°58'7 7.2
2014-Nov-19 19:33N 51°22' E 004°09'7 6.5
2014-Nov-19 18:34N 51°18' E 004°16'0 0.1
2014-Nov-19 17:30N 51°18' E 004°16'0 0.0
2014-Nov-19 16:31N 51°18' E 004°16'0 0.0
2014-Nov-19 15:31N 51°18' E 004°16'0 0.0
2014-Nov-19 14:31N 51°18' E 004°16'0 0.0
2014-Nov-19 13:31N 51°18' E 004°16'0 0.0
2014-Nov-19 12:31N 51°18' E 004°16'0 0.0
2014-Nov-19 11:31N 51°18' E 004°16'0 0.0
2014-Nov-19 10:31N 51°18' E 004°16'0 0.0
2014-Nov-19 09:31N 51°18' E 004°16'0 0.0
2014-Nov-19 08:28N 51°18' E 004°16'0 0.0
2014-Nov-19 07:28N 51°18' E 004°16'0 0.0
2014-Nov-19 06:25N 51°18' E 004°16'0 0.0
2014-Nov-19 05:31N 51°18' E 004°16'0 0.0
2014-Nov-19 04:31N 51°18' E 004°16'0 0.0
2014-Nov-19 03:31N 51°18' E 004°16'0 0.0
2014-Nov-19 02:31N 51°18' E 004°16'0 0.0
2014-Nov-19 01:31N 51°18' E 004°16'0 0.0
2014-Nov-19 00:28N 51°18' E 004°16'0 0.0
2014-Nov-18 23:31N 51°18' E 004°16'0 0.0
2014-Nov-18 22:31N 51°18' E 004°16'0 0.0
2014-Nov-18 21:31N 51°18' E 004°16'0 0.0
2014-Nov-18 20:31N 51°18' E 004°16'0 0.0
2014-Nov-18 19:31N 51°18' E 004°16'0 0.0
2014-Nov-18 18:31N 51°18' E 004°16'0 0.0
2014-Nov-18 17:31N 51°18' E 004°16'0 0.0
2014-Nov-18 16:31N 51°18' E 004°16'0 0.0
2014-Nov-18 15:28N 51°18' E 004°16'0 0.1
2014-Nov-18 14:34N 51°18' E 004°16'3 3.3
2014-Nov-18 13:33N 51°21' E 004°15'8 8.0
2014-Nov-18 12:34N 51°23' E 004°02'6 5.9
2014-Nov-18 11:33N 51°21' E 003°53'1010.5
2014-Nov-18 10:33N 51°26' E 003°39'1312.8
2014-Nov-18 09:34N 51°24' E 003°18'1111.1
2014-Nov-18 08:33N 51°28' E 003°01'1413.8
2014-Nov-18 07:32N 51°40' E 003°11'7 7.0
2014-Nov-18 06:33N 51°45' E 003°18'0 0.1
2014-Nov-18 05:25N 51°45' E 003°18'0 0.0
2014-Nov-18 04:13N 51°45' E 003°18'0 0.0
2014-Nov-18 03:31N 51°45' E 003°18'0 0.0
2014-Nov-18 02:31N 51°45' E 003°18'0 0.1
2014-Nov-18 01:25N 51°45' E 003°18'0 0.1
2014-Nov-18 00:22N 51°45' E 003°18'0 0.0
2014-Nov-17 23:31N 51°45' E 003°18'0 0.0
2014-Nov-17 22:28N 51°45' E 003°18'0 0.0
2014-Nov-17 21:25N 51°45' E 003°18'0 0.1
2014-Nov-17 20:16N 51°45' E 003°18'0 0.1
2014-Nov-17 19:31N 51°45' E 003°18'0 0.1
2014-Nov-17 18:31N 51°45' E 003°18'0 0.0
2014-Nov-17 17:31N 51°45' E 003°18'5 5.5
2014-Nov-17 16:33N 51°51' E 003°17'9012.1
2014-Nov-17 09:09N 53°11' E 004°23'2113.2
2014-Nov-17 07:32N 53°29' E 004°42'1414.1
2014-Nov-17 06:34N 53°34' E 005°04'1413.7
2014-Nov-17 05:33N 53°38' E 005°25'1313.0
2014-Nov-17 04:33N 53°42' E 005°46'1312.5
2014-Nov-17 03:33N 53°46' E 006°06'5212.9
2014-Nov-16 23:33N 53°59' E 007°31'1211.6
2014-Nov-16 22:33N 53°53' E 007°47'1313.2
2014-Nov-16 21:33N 53°48' E 008°08'1615.6
2014-Nov-16 20:33N 53°38' E 008°28'2 2.2
2014-Nov-16 19:32N 53°36' E 008°31'0 0.0
2014-Nov-16 18:32N 53°36' E 008°31'0 0.0
2014-Nov-16 17:32N 53°36' E 008°31'0 0.0
2014-Nov-16 16:32N 53°36' E 008°31'0 0.0
2014-Nov-16 15:32N 53°36' E 008°31'0 0.0
2014-Nov-16 14:32N 53°36' E 008°31'0 0.0
2014-Nov-16 13:32N 53°36' E 008°31'0 0.0
2014-Nov-16 12:32N 53°36' E 008°31'0 0.0
2014-Nov-16 11:32N 53°36' E 008°31'0 0.0
2014-Nov-16 10:32N 53°36' E 008°31'0 0.0
2014-Nov-16 09:32N 53°36' E 008°31'0 0.0
2014-Nov-16 08:32N 53°36' E 008°31'0 0.0
2014-Nov-16 07:29N 53°36' E 008°31'0 0.0
2014-Nov-16 06:32N 53°36' E 008°31'0 0.0
2014-Nov-16 05:32N 53°36' E 008°31'0 0.0
2014-Nov-16 04:32N 53°36' E 008°31'0 0.0
2014-Nov-16 03:34N 53°36' E 008°31'0 0.0
2014-Nov-16 02:33N 53°36' E 008°31'0 0.0
2014-Nov-16 01:33N 53°36' E 008°31'0 0.0
2014-Nov-16 00:34N 53°36' E 008°31'3 2.7
2014-Nov-15 23:33N 53°38' E 008°27'1515.2
2014-Nov-15 22:34N 53°48' E 008°08'1413.5
2014-Nov-15 21:33N 53°54' E 007°47'1 0.7
2014-Nov-15 20:30N 53°54' E 007°47'0 0.0
2014-Nov-15 19:33N 53°54' E 007°47'0 0.0
2014-Nov-15 18:33N 53°54' E 007°47'0 0.0
2014-Nov-15 17:30N 53°54' E 007°47'0 0.0
2014-Nov-15 16:30N 53°54' E 007°47'0 0.1
2014-Nov-15 15:33N 53°54' E 007°47'0 0.0
2014-Nov-15 14:33N 53°54' E 007°47'0 0.0
2014-Nov-15 13:30N 53°54' E 007°47'0 0.0
2014-Nov-15 12:33N 53°54' E 007°47'0 0.0
2014-Nov-15 11:33N 53°54' E 007°47'0 0.0
2014-Nov-15 10:33N 53°54' E 007°47'0 0.0
2014-Nov-15 09:33N 53°54' E 007°47'0 0.0
2014-Nov-15 08:30N 53°54' E 007°47'0 0.0
2014-Nov-15 07:33N 53°54' E 007°47'0 0.0
2014-Nov-15 06:33N 53°54' E 007°47'0 0.0
2014-Nov-15 05:30N 53°54' E 007°47'0 0.0
2014-Nov-15 04:33N 53°54' E 007°47'0 0.0
2014-Nov-15 03:33N 53°54' E 007°47'0 0.0
2014-Nov-15 02:27N 53°54' E 007°47'0 0.0
2014-Nov-15 01:33N 53°54' E 007°47'0 0.0
2014-Nov-15 00:27N 53°54' E 007°47'0 0.0
2014-Nov-14 23:33N 53°54' E 007°47'0 0.0
2014-Nov-14 22:33N 53°54' E 007°47'0 0.0
2014-Nov-14 21:33N 53°54' E 007°47'0 0.0
2014-Nov-14 20:30N 53°54' E 007°47'0 0.0
2014-Nov-14 19:27N 53°54' E 007°47'0 0.0
2014-Nov-14 18:33N 53°54' E 007°47'0 0.0
2014-Nov-14 17:33N 53°54' E 007°47'0 0.0
2014-Nov-14 16:33N 53°54' E 007°47'0 0.0
2014-Nov-14 15:27N 53°54' E 007°47'0 0.0
2014-Nov-14 14:27N 53°54' E 007°47'27 9.0
2014-Nov-14 11:30N 53°51' E 007°02'1212.9
2014-Nov-14 10:33N 53°48' E 006°42'1312.3
2014-Nov-14 09:29N 53°45' E 006°20'1111.9
2014-Nov-14 08:33N 53°41' E 006°02'1211.7
2014-Nov-14 07:33N 53°38' E 005°43'814.4
2014-Nov-14 07:00N 53°36' E 005°30'4 8.3 130 / 211009.0 0.5 9.8 9.213.0
2014-Nov-14 06:33N 53°34' E 005°25'1111.5
2014-Nov-14 05:33N 53°31' E 005°06'1211.6
2014-Nov-14 04:33N 53°26' E 004°48'1211.8
2014-Nov-14 03:33N 53°17' E 004°36'1120.5
2014-Nov-14 03:00N 53°06' E 004°30'3 6.0 130 / 61008.6 5.4 10.010.014.0
2014-Nov-14 02:33N 53°06' E 004°26'1212.5
2014-Nov-14 01:33N 52°55' E 004°17'1212.2
2014-Nov-14 00:33N 52°45' E 004°06'1211.8
2014-Nov-13 23:33N 52°39' E 003°48'1312.5
2014-Nov-13 22:33N 52°31' E 003°34'1312.6
2014-Nov-13 21:33N 52°24' E 003°16'5413.4
2014-Nov-13 17:33N 51°52' E 002°06'1312.6
2014-Nov-13 16:33N 51°48' E 001°46'9 9.3
2014-Nov-13 15:33N 51°53' E 001°33'9 9.1
2014-Nov-13 14:33N 51°55' E 001°19'3 2.6
2014-Nov-13 13:31N 51°58' E 001°17'0 0.0
2014-Nov-13 12:31N 51°58' E 001°17'  

Dump ship's entire track history